createdAt,value
2022-08-11T00:00:08.371Z,0
2022-08-11T00:01:07.419Z,0.219
2022-08-11T00:02:15.044Z,0.340
2022-08-11T00:03:07.749Z,0.340
2022-08-11T00:04:07.378Z,0.219
2022-08-11T00:05:07.692Z,0.219
2022-08-11T00:06:07.232Z,0.219
2022-08-11T00:07:07.680Z,0.109
2022-08-11T00:08:07.616Z,0.109
2022-08-11T00:09:07.530Z,0.219
2022-08-11T00:10:07.455Z,0.109
2022-08-11T00:11:07.527Z,0
2022-08-11T00:12:07.719Z,0
2022-08-11T00:13:07.401Z,0
2022-08-11T00:14:08.020Z,0
2022-08-11T00:15:07.631Z,0
2022-08-11T00:16:07.371Z,0.100
2022-08-11T00:17:07.956Z,0
2022-08-11T00:18:07.503Z,0
2022-08-11T00:19:07.522Z,0
2022-08-11T00:20:12.403Z,0
2022-08-11T00:21:07.633Z,0
2022-08-11T00:22:07.416Z,0
2022-08-11T00:23:07.691Z,0
2022-08-11T00:24:08.071Z,0
2022-08-11T00:25:08.027Z,0
2022-08-11T00:26:07.357Z,0
2022-08-11T00:27:07.662Z,0
2022-08-11T00:28:07.521Z,0
2022-08-11T00:29:07.340Z,0
2022-08-11T00:30:07.841Z,0
2022-08-11T00:31:07.603Z,0
2022-08-11T00:32:08.009Z,0
2022-08-11T00:33:07.946Z,0
2022-08-11T00:34:07.262Z,0
2022-08-11T00:35:50.943Z,0
2022-08-11T00:36:06.949Z,0
2022-08-11T00:37:07.419Z,0
2022-08-11T00:38:07.657Z,0
2022-08-11T00:39:07.306Z,0.109
2022-08-11T00:40:08.026Z,0
2022-08-11T00:41:07.501Z,0
2022-08-11T00:42:07.886Z,0.219
2022-08-11T00:43:07.287Z,0.109
2022-08-11T00:44:07.723Z,0
2022-08-11T00:45:07.635Z,0
2022-08-11T00:46:07.348Z,0
2022-08-11T00:47:07.987Z,0.109
2022-08-11T00:48:07.349Z,0
2022-08-11T00:49:08.007Z,0
2022-08-11T00:50:07.646Z,0
2022-08-11T00:51:07.172Z,0
2022-08-11T00:52:07.806Z,0
2022-08-11T00:53:07.657Z,0.219
2022-08-11T00:54:07.874Z,0
2022-08-11T00:55:07.578Z,0
2022-08-11T00:56:07.693Z,0.219
2022-08-11T00:57:10.343Z,0
2022-08-11T00:58:07.393Z,0
2022-08-11T00:59:26.450Z,0.109
2022-08-11T01:00:08.145Z,0.109
2022-08-11T01:01:07.723Z,0.219
2022-08-11T01:02:07.533Z,0.109
2022-08-11T01:03:07.444Z,0.219
2022-08-11T01:04:07.577Z,0
2022-08-11T01:05:08.002Z,0.219
2022-08-11T01:06:08.038Z,0.109
2022-08-11T01:07:07.507Z,0.109
2022-08-11T01:08:07.763Z,0
2022-08-11T01:09:07.498Z,0.109
2022-08-11T01:10:07.985Z,0
2022-08-11T01:11:07.499Z,0
2022-08-11T01:12:08.132Z,0
2022-08-11T01:13:08.420Z,0.340
2022-08-11T01:14:07.873Z,0.109
2022-08-11T01:15:07.788Z,0
2022-08-11T01:16:07.513Z,0.109
2022-08-11T01:17:09.623Z,0.219
2022-08-11T01:18:07.371Z,0.109
2022-08-11T01:19:07.797Z,0.109
2022-08-11T01:20:45.325Z,0.109
2022-08-11T01:21:07.056Z,0.109
2022-08-11T01:22:07.812Z,0.109
2022-08-11T01:23:07.590Z,0
2022-08-11T01:24:08.179Z,0
2022-08-11T01:25:07.577Z,0.109
2022-08-11T01:26:07.912Z,0
2022-08-11T01:27:19.567Z,0.109
2022-08-11T01:28:07.542Z,0
2022-08-11T01:29:08.030Z,0
2022-08-11T01:30:08.072Z,0.109
2022-08-11T01:31:07.638Z,0
2022-08-11T01:32:07.677Z,0
2022-08-11T01:33:07.383Z,0
2022-08-11T01:34:07.712Z,0
2022-08-11T01:35:07.206Z,0
2022-08-11T01:36:07.786Z,0
2022-08-11T01:37:07.348Z,0
2022-08-11T01:38:07.672Z,0
2022-08-11T01:39:07.854Z,0.109
2022-08-11T01:40:07.563Z,0
2022-08-11T01:41:07.112Z,0
2022-08-11T01:42:07.719Z,0.109
2022-08-11T01:43:08.026Z,0
2022-08-11T01:44:12.645Z,0.109
2022-08-11T01:45:08.008Z,0
2022-08-11T01:46:07.529Z,0
2022-08-11T01:47:08.051Z,0.109
2022-08-11T01:48:07.423Z,0.119
2022-08-11T01:50:06.591Z,0
2022-08-11T01:50:10.473Z,0.119
2022-08-11T01:51:07.367Z,0.109
2022-08-11T01:52:07.567Z,0.200
2022-08-11T01:53:07.780Z,0
2022-08-11T01:54:07.273Z,0
2022-08-11T01:55:07.925Z,0
2022-08-11T01:56:07.221Z,0
2022-08-11T01:57:07.442Z,0
2022-08-11T01:58:07.428Z,0.109
2022-08-11T01:59:07.673Z,0
2022-08-11T02:00:07.662Z,0
2022-08-11T02:01:07.640Z,0.219
2022-08-11T02:02:07.306Z,0
2022-08-11T02:03:07.512Z,0
2022-08-11T02:04:08.128Z,0
2022-08-11T02:05:08.071Z,0
2022-08-11T02:06:07.396Z,0.109
2022-08-11T02:07:08.900Z,0
2022-08-11T02:08:07.497Z,0
2022-08-11T02:09:07.576Z,0.109
2022-08-11T02:10:07.059Z,0
2022-08-11T02:11:07.756Z,0
2022-08-11T02:12:07.485Z,0.109
2022-08-11T02:13:07.829Z,0.109
2022-08-11T02:14:07.313Z,0
2022-08-11T02:15:08.212Z,0.219
2022-08-11T02:16:07.652Z,0
2022-08-11T02:17:07.575Z,0
2022-08-11T02:18:07.131Z,0
2022-08-11T02:19:07.235Z,0
2022-08-11T02:20:07.823Z,0
2022-08-11T02:21:07.361Z,0
2022-08-11T02:22:07.689Z,0
2022-08-11T02:23:07.775Z,0
2022-08-11T02:24:08.040Z,0.109
2022-08-11T02:25:07.788Z,0
2022-08-11T02:26:07.678Z,0
2022-08-11T02:27:07.444Z,0.109
2022-08-11T02:28:07.826Z,0.109
2022-08-11T02:29:07.321Z,0
2022-08-11T02:30:07.303Z,0
2022-08-11T02:31:15.466Z,0.109
2022-08-11T02:32:25.485Z,0.109
2022-08-11T02:33:07.495Z,0.109
2022-08-11T02:34:07.809Z,0
2022-08-11T02:35:07.411Z,0.219
2022-08-11T02:36:07.903Z,0
2022-08-11T02:37:07.755Z,0.340
2022-08-11T02:38:07.599Z,0.109
2022-08-11T02:39:07.354Z,0
2022-08-11T02:40:07.990Z,0
2022-08-11T02:41:07.367Z,0.109
2022-08-11T02:42:08.262Z,0.109
2022-08-11T02:43:07.426Z,0.109
2022-08-11T02:44:07.828Z,0
2022-08-11T02:45:07.620Z,0.219
2022-08-11T02:46:07.340Z,0.219
2022-08-11T02:47:07.694Z,0.219
2022-08-11T02:48:07.460Z,0.109
2022-08-11T02:49:07.876Z,0
2022-08-11T02:50:07.999Z,0
2022-08-11T02:51:07.698Z,0.340
2022-08-11T02:52:07.310Z,0.219
2022-08-11T02:53:08.215Z,0.219
2022-08-11T02:54:07.945Z,0.219
2022-08-11T02:55:07.529Z,0
2022-08-11T02:56:07.716Z,0.109
2022-08-11T02:57:11.444Z,0.340
2022-08-11T02:58:07.444Z,0.449
2022-08-11T02:59:07.788Z,0.109
2022-08-11T03:00:07.998Z,0.340
2022-08-11T03:01:07.370Z,0.219
2022-08-11T03:02:07.939Z,0.340
2022-08-11T03:03:07.794Z,0.109
2022-08-11T03:04:07.307Z,0.109
2022-08-11T03:05:08.092Z,0.219
2022-08-11T03:06:07.692Z,0.109
2022-08-11T03:07:29.048Z,0.449
2022-08-11T03:08:07.507Z,0.340
2022-08-11T03:09:07.397Z,0.449
2022-08-11T03:10:07.844Z,0.449
2022-08-11T03:11:07.464Z,0.109
2022-08-11T03:12:07.617Z,0.219
2022-08-11T03:13:07.304Z,0.219
2022-08-11T03:14:07.687Z,0.340
2022-08-11T03:15:07.522Z,0.340
2022-08-11T03:16:07.751Z,0
2022-08-11T03:17:07.323Z,0
2022-08-11T03:18:07.916Z,0
2022-08-11T03:19:07.423Z,0
2022-08-11T03:20:07.790Z,0
2022-08-11T03:21:07.229Z,0
2022-08-11T03:22:07.456Z,0
2022-08-11T03:23:19.671Z,0
2022-08-11T03:24:07.872Z,0
2022-08-11T03:25:12.384Z,0
2022-08-11T03:26:07.762Z,0
2022-08-11T03:27:07.616Z,0
2022-08-11T03:28:07.740Z,0
2022-08-11T03:29:07.448Z,0
2022-08-11T03:30:07.625Z,0
2022-08-11T03:31:07.437Z,0
2022-08-11T03:32:08.044Z,0
2022-08-11T03:33:07.937Z,13600
2022-08-11T03:34:08.284Z,0
2022-08-11T03:35:08.128Z,0
2022-08-11T03:36:07.587Z,0
2022-08-11T03:37:16.130Z,0
2022-08-11T03:38:07.739Z,0
2022-08-11T03:39:07.431Z,0
2022-08-11T03:40:08.023Z,0.5
2022-08-11T03:42:02.210Z,0.560
2022-08-11T03:42:10.288Z,0.180
2022-08-11T03:43:07.812Z,0.449
2022-08-11T03:44:07.454Z,1.200
2022-08-11T03:45:07.245Z,1.309
2022-08-11T03:46:08.005Z,1.559
2022-08-11T03:47:07.253Z,2.210
2022-08-11T03:48:07.992Z,2.730
2022-08-11T03:49:07.446Z,3.440
2022-08-11T03:50:07.360Z,4.409
2022-08-11T03:51:07.843Z,5.429
2022-08-11T03:52:07.349Z,6.550
2022-08-11T03:53:07.583Z,7.690
2022-08-11T03:54:06.998Z,9.289
2022-08-11T03:55:07.942Z,11.19
2022-08-11T03:56:07.708Z,13.07
2022-08-11T03:57:07.311Z,15.30
2022-08-11T03:58:07.524Z,17.70
2022-08-11T03:59:08.079Z,20.52
2022-08-11T04:00:08.649Z,23.70
2022-08-11T04:01:07.606Z,27.29
2022-08-11T04:02:07.548Z,31.39
2022-08-11T04:03:07.002Z,35.59
2022-08-11T04:04:07.920Z,40.29
2022-08-11T04:05:07.569Z,45.59
2022-08-11T04:06:08.057Z,51.5
2022-08-11T04:07:07.423Z,57.29
2022-08-11T04:08:07.529Z,64.30
2022-08-11T04:09:07.413Z,71
2022-08-11T04:10:07.889Z,78.59
2022-08-11T04:11:07.351Z,86.80
2022-08-11T04:12:07.866Z,95.5
2022-08-11T04:13:07.320Z,104.6
2022-08-11T04:14:07.643Z,114
2022-08-11T04:15:07.248Z,124
2022-08-11T04:16:11.530Z,134
2022-08-11T04:17:07.659Z,145
2022-08-11T04:18:07.349Z,157
2022-08-11T04:19:07.758Z,169
2022-08-11T04:20:07.362Z,183
2022-08-11T04:21:07.800Z,197
2022-08-11T04:22:07.200Z,211
2022-08-11T04:23:07.429Z,225
2022-08-11T04:24:35.439Z,240
2022-08-11T04:25:08.052Z,256
2022-08-11T04:26:18.813Z,271
2022-08-11T04:27:08.195Z,288
2022-08-11T04:28:07.639Z,304
2022-08-11T04:29:09.528Z,322
2022-08-11T04:30:09.102Z,340
2022-08-11T04:31:07.882Z,357
2022-08-11T04:32:07.336Z,376
2022-08-11T04:33:07.746Z,395
2022-08-11T04:34:08.192Z,413
2022-08-11T04:35:08.259Z,432
2022-08-11T04:36:07.967Z,451
2022-08-11T04:37:07.413Z,470
2022-08-11T04:38:07.778Z,490
2022-08-11T04:39:07.474Z,509
2022-08-11T04:40:07.699Z,529
2022-08-11T04:41:07.186Z,548
2022-08-11T04:42:07.307Z,568
2022-08-11T04:43:07.426Z,588
2022-08-11T04:44:07.579Z,608
2022-08-11T04:45:08.345Z,628
2022-08-11T04:46:07.252Z,648
2022-08-11T04:47:07.755Z,668
2022-08-11T04:48:07.584Z,688
2022-08-11T04:49:08.007Z,708
2022-08-11T04:50:07.015Z,727
2022-08-11T04:51:15.994Z,747
2022-08-11T04:52:07.596Z,766
2022-08-11T04:53:07.807Z,786
2022-08-11T04:54:07.365Z,804
2022-08-11T04:55:07.309Z,823
2022-08-11T04:56:07.532Z,843
2022-08-11T04:57:07.991Z,862
2022-08-11T04:58:07.602Z,880
2022-08-11T04:59:07.345Z,900
2022-08-11T05:00:08.718Z,918
2022-08-11T05:01:07.510Z,937
2022-08-11T05:02:17.323Z,960
2022-08-11T05:03:07.779Z,985
2022-08-11T05:04:07.160Z,1010
2022-08-11T05:05:07.694Z,1032
2022-08-11T05:06:07.241Z,1055
2022-08-11T05:07:07.846Z,1084
2022-08-11T05:08:07.358Z,1113
2022-08-11T05:09:07.494Z,1140
2022-08-11T05:10:07.898Z,1169
2022-08-11T05:11:07.492Z,1200
2022-08-11T05:12:07.656Z,1230
2022-08-11T05:13:07.881Z,1200
2022-08-11T05:14:07.462Z,1400
2022-08-11T05:15:08.319Z,1480
2022-08-11T05:16:07.661Z,1300
2022-08-11T05:17:08.177Z,1300
2022-08-11T05:18:07.799Z,1320
2022-08-11T05:19:07.840Z,1400
2022-08-11T05:20:12.283Z,1489
2022-08-11T05:21:07.629Z,1450
2022-08-11T05:22:15.153Z,1424
2022-08-11T05:23:08.286Z,1408.
2022-08-11T05:24:07.491Z,1406.
2022-08-11T05:25:08.117Z,1403.
2022-08-11T05:26:46.182Z,1404.
2022-08-11T05:27:12.882Z,1412
2022-08-11T05:28:07.603Z,1426
2022-08-11T05:29:19.706Z,1439
2022-08-11T05:30:07.621Z,1454
2022-08-11T05:31:07.217Z,1466
2022-08-11T05:32:07.810Z,1480
2022-08-11T05:33:07.870Z,1498
2022-08-11T05:34:07.552Z,1514
2022-08-11T05:35:07.442Z,1527
2022-08-11T05:36:22.311Z,1538
2022-08-11T05:37:25.712Z,1551
2022-08-11T05:38:07.340Z,1569
2022-08-11T05:39:07.795Z,1587
2022-08-11T05:40:07.736Z,1606
2022-08-11T05:41:07.260Z,1623
2022-08-11T05:42:07.619Z,1640
2022-08-11T05:43:07.655Z,1656
2022-08-11T05:44:21.311Z,1675
2022-08-11T05:45:15.648Z,1693
2022-08-11T05:46:11.332Z,1716
2022-08-11T05:47:07.960Z,1741
2022-08-11T05:48:07.769Z,1765
2022-08-11T05:49:07.237Z,1793
2022-08-11T05:50:07.639Z,1824
2022-08-11T05:51:10.519Z,1855
2022-08-11T05:52:12.942Z,1880
2022-08-11T05:53:09.201Z,1920
2022-08-11T05:54:07.056Z,1950
2022-08-11T05:55:07.449Z,1986
2022-08-11T05:56:08.059Z,2014
2022-08-11T05:57:07.532Z,2044
2022-08-11T05:58:07.789Z,2070
2022-08-11T05:59:07.257Z,2120
2022-08-11T06:00:08.478Z,2152
2022-08-11T06:01:08.033Z,2180
2022-08-11T06:02:08.127Z,2209
2022-08-11T06:03:07.774Z,2234
2022-08-11T06:04:07.691Z,2260
2022-08-11T06:05:07.446Z,2284
2022-08-11T06:06:08.061Z,2306
2022-08-11T06:07:07.552Z,2327
2022-08-11T06:08:08.071Z,2348
2022-08-11T06:09:07.906Z,2369
2022-08-11T06:10:07.719Z,2391
2022-08-11T06:11:07.695Z,2416
2022-08-11T06:12:07.260Z,2443
2022-08-11T06:13:07.749Z,2468
2022-08-11T06:14:08.060Z,2492
2022-08-11T06:15:07.672Z,2512
2022-08-11T06:16:07.364Z,2531
2022-08-11T06:17:07.932Z,2555
2022-08-11T06:18:07.599Z,2580
2022-08-11T06:19:07.636Z,2614
2022-08-11T06:20:07.875Z,2642
2022-08-11T06:21:07.619Z,2668
2022-08-11T06:22:07.496Z,2690
2022-08-11T06:23:07.495Z,2711
2022-08-11T06:24:07.284Z,2725.
2022-08-11T06:25:07.861Z,2731.
2022-08-11T06:26:08.376Z,2735.
2022-08-11T06:27:13.463Z,2747
2022-08-11T06:28:07.307Z,2767
2022-08-11T06:29:07.911Z,2774.
2022-08-11T06:30:07.895Z,2773.
2022-08-11T06:31:07.821Z,2776
2022-08-11T06:32:07.440Z,2794
2022-08-11T06:33:07.581Z,2821
2022-08-11T06:34:08.245Z,2842
2022-08-11T06:35:07.464Z,2853.
2022-08-11T06:36:07.866Z,2855.
2022-08-11T06:37:07.555Z,2857.
2022-08-11T06:38:08.307Z,2869
2022-08-11T06:39:08.063Z,2876.
2022-08-11T06:40:08.009Z,2883
2022-08-11T06:41:07.473Z,2904
2022-08-11T06:42:07.921Z,2918.
2022-08-11T06:43:07.299Z,2921.
2022-08-11T06:44:07.909Z,2930
2022-08-11T06:45:07.800Z,2945
2022-08-11T06:46:07.351Z,2953.
2022-08-11T06:47:07.958Z,2956.
2022-08-11T06:48:07.504Z,2968
2022-08-11T06:49:07.788Z,2990
2022-08-11T06:50:07.489Z,3030
2022-08-11T06:51:08.029Z,3064
2022-08-11T06:52:07.456Z,3086
2022-08-11T06:53:07.837Z,3110
2022-08-11T06:54:07.141Z,3150
2022-08-11T06:55:10.304Z,3192
2022-08-11T06:56:07.708Z,3215
2022-08-11T06:57:28.837Z,3229.
2022-08-11T06:58:07.654Z,3225
2022-08-11T06:59:07.321Z,3201
2022-08-11T07:00:07.685Z,3210
2022-08-11T07:01:07.800Z,3300
2022-08-11T07:02:07.490Z,3380
2022-08-11T07:03:07.251Z,3414
2022-08-11T07:04:07.188Z,3435
2022-08-11T07:05:07.981Z,3460
2022-08-11T07:06:07.942Z,3500
2022-08-11T07:07:07.417Z,3550
2022-08-11T07:08:34.346Z,3610
2022-08-11T07:09:08.094Z,3670
2022-08-11T07:10:07.545Z,3740
2022-08-11T07:11:06.962Z,3789
2022-08-11T07:12:07.525Z,3779
2022-08-11T07:13:07.415Z,3781
2022-08-11T07:14:07.042Z,3800
2022-08-11T07:15:08.073Z,3820
2022-08-11T07:16:12.296Z,3880
2022-08-11T07:17:07.469Z,3924
2022-08-11T07:18:07.874Z,3931
2022-08-11T07:19:07.221Z,3960
2022-08-11T07:20:07.946Z,3989.
2022-08-11T07:22:00.620Z,4000
2022-08-11T07:22:08.743Z,4050
2022-08-11T07:23:07.624Z,4073.
2022-08-11T07:24:07.338Z,4090
2022-08-11T07:25:07.729Z,4150
2022-08-11T07:26:07.261Z,4183
2022-08-11T07:27:07.655Z,4220
2022-08-11T07:28:07.458Z,4320
2022-08-11T07:29:07.446Z,4400
2022-08-11T07:30:08.390Z,4500
2022-08-11T07:31:07.761Z,4700
2022-08-11T07:32:08.134Z,4600
2022-08-11T07:33:07.958Z,4390
2022-08-11T07:34:11.138Z,4380
2022-08-11T07:35:07.665Z,4416
2022-08-11T07:36:07.485Z,4441
2022-08-11T07:37:07.533Z,4470
2022-08-11T07:38:08.026Z,4500
2022-08-11T07:39:07.765Z,4540
2022-08-11T07:40:07.635Z,4590
2022-08-11T07:41:07.492Z,4630
2022-08-11T07:42:07.795Z,4670
2022-08-11T07:43:07.415Z,4720
2022-08-11T07:44:07.352Z,4770
2022-08-11T07:45:08.160Z,4820
2022-08-11T07:46:07.864Z,4880
2022-08-11T07:47:07.678Z,4940
2022-08-11T07:48:07.001Z,5010
2022-08-11T07:49:07.398Z,5070
2022-08-11T07:50:07.720Z,5140
2022-08-11T07:51:07.112Z,5220
2022-08-11T07:52:07.667Z,5310
2022-08-11T07:53:07.320Z,5410
2022-08-11T07:54:16.893Z,5500
2022-08-11T07:55:08.510Z,5600
2022-08-11T07:56:07.106Z,5700
2022-08-11T07:57:09.615Z,5800
2022-08-11T07:58:16.812Z,5900
2022-08-11T07:59:08.245Z,6100
2022-08-11T08:00:08.000Z,6200
2022-08-11T08:01:10.262Z,6400
2022-08-11T08:02:08.201Z,6600
2022-08-11T08:03:07.587Z,6800
2022-08-11T08:04:07.912Z,7000
2022-08-11T08:05:07.619Z,7000
2022-08-11T08:06:15.272Z,0
2022-08-11T08:07:07.554Z,0
2022-08-11T08:08:07.361Z,0
2022-08-11T08:09:07.804Z,0
2022-08-11T08:10:07.456Z,0
2022-08-11T08:11:07.336Z,0
2022-08-11T08:12:07.766Z,0
2022-08-11T08:13:07.182Z,0
2022-08-11T08:14:07.934Z,0
2022-08-11T08:15:07.457Z,20000
2022-08-11T08:16:07.104Z,0
2022-08-11T08:17:07.844Z,0
2022-08-11T08:18:09.630Z,0
2022-08-11T08:19:07.661Z,0
2022-08-11T08:20:07.278Z,23000
2022-08-11T08:21:07.819Z,20000
2022-08-11T08:22:37.710Z,26000
2022-08-11T08:23:07.825Z,0
2022-08-11T08:24:07.185Z,0
2022-08-11T08:25:08.146Z,10000
2022-08-11T08:26:16.694Z,0
2022-08-11T08:27:07.559Z,0
2022-08-11T08:28:07.270Z,30000
2022-08-11T08:29:07.943Z,30000
2022-08-11T08:30:08.057Z,30000
2022-08-11T08:31:07.805Z,30000
2022-08-11T08:32:07.650Z,0
2022-08-11T08:33:07.660Z,20000
2022-08-11T08:34:07.221Z,20000
2022-08-11T08:35:07.748Z,28000
2022-08-11T08:36:07.706Z,28000
2022-08-11T08:37:16.236Z,0
2022-08-11T08:38:07.955Z,0
2022-08-11T08:39:07.581Z,10000
2022-08-11T08:40:07.943Z,0
2022-08-11T08:41:07.566Z,0
2022-08-11T08:42:08.003Z,0
2022-08-11T08:43:07.814Z,0
2022-08-11T08:44:36.787Z,20000
2022-08-11T08:45:08.208Z,20000
2022-08-11T08:46:07.812Z,26000
2022-08-11T08:47:07.321Z,20000
2022-08-11T08:48:07.215Z,0
2022-08-11T08:49:07.522Z,30000
2022-08-11T08:50:07.968Z,0
2022-08-11T08:51:08.106Z,0
2022-08-11T08:52:29.526Z,0
2022-08-11T08:53:07.815Z,9000
2022-08-11T08:54:07.258Z,0
2022-08-11T08:55:08.401Z,0
2022-08-11T08:56:07.317Z,0
2022-08-11T08:57:07.942Z,33000
2022-08-11T08:58:07.668Z,30000
2022-08-11T08:59:07.594Z,0
2022-08-11T09:00:08.851Z,20000
2022-08-11T09:01:07.859Z,0
2022-08-11T09:02:07.744Z,0
2022-08-11T09:03:36.154Z,0
2022-08-11T09:04:11.390Z,0
2022-08-11T09:05:07.381Z,0
2022-08-11T09:06:08.048Z,20000
2022-08-11T09:07:07.915Z,0
2022-08-11T09:08:07.333Z,0
2022-08-11T09:09:08.365Z,30000
2022-08-11T09:10:08.052Z,30000
2022-08-11T09:11:13.271Z,30000
2022-08-11T09:12:07.655Z,30000
2022-08-11T09:13:07.486Z,30000
2022-08-11T09:14:12.839Z,30000
2022-08-11T09:15:08.200Z,30000
2022-08-11T09:16:07.320Z,30000
2022-08-11T09:17:07.292Z,31000
2022-08-11T09:18:07.878Z,31300
2022-08-11T09:19:07.555Z,31000
2022-08-11T09:20:07.433Z,0
2022-08-11T09:21:07.625Z,0
2022-08-11T09:22:07.489Z,0
2022-08-11T09:24:06.382Z,0
2022-08-11T09:24:14.833Z,11000
2022-08-11T09:25:08.062Z,10000
2022-08-11T09:26:07.593Z,0
2022-08-11T09:27:07.113Z,0
2022-08-11T09:28:07.937Z,4000
2022-08-11T09:29:07.923Z,0
2022-08-11T09:30:07.921Z,0
2022-08-11T09:31:08.119Z,0
2022-08-11T09:32:07.451Z,0
2022-08-11T09:33:07.964Z,23000
2022-08-11T09:34:07.714Z,20000
2022-08-11T09:35:07.520Z,25000
2022-08-11T09:36:07.153Z,24000
2022-08-11T09:37:07.803Z,20000
2022-08-11T09:38:07.282Z,20000
2022-08-11T09:39:08.150Z,21000
2022-08-11T09:40:07.774Z,20000
2022-08-11T09:41:07.750Z,20000
2022-08-11T09:42:11.308Z,20000
2022-08-11T09:43:07.665Z,28000
2022-08-11T09:44:07.071Z,20000
2022-08-11T09:45:07.975Z,25000
2022-08-11T09:46:07.744Z,20000
2022-08-11T09:47:07.868Z,26400
2022-08-11T09:48:07.359Z,25000
2022-08-11T09:49:07.109Z,20000
2022-08-11T09:50:07.909Z,0
2022-08-11T09:51:07.952Z,30000
2022-08-11T09:52:07.675Z,31000
2022-08-11T09:53:36.434Z,30000
2022-08-11T09:54:08.251Z,29000
2022-08-11T09:55:08.050Z,29000
2022-08-11T09:56:08.036Z,30000
2022-08-11T09:57:08.231Z,20000
2022-08-11T09:58:07.694Z,20000
2022-08-11T09:59:07.396Z,20000
2022-08-11T10:00:12.880Z,0
2022-08-11T10:01:07.247Z,0
2022-08-11T10:02:08.241Z,0
2022-08-11T10:03:07.994Z,30000
2022-08-11T10:04:07.545Z,30000
2022-08-11T10:05:07.324Z,37000
2022-08-11T10:06:08.291Z,37000
2022-08-11T10:07:08.014Z,30000
2022-08-11T10:08:07.659Z,0
2022-08-11T10:09:07.643Z,0
2022-08-11T10:10:07.537Z,20000
2022-08-11T10:11:07.532Z,24000
2022-08-11T10:12:07.792Z,23000
2022-08-11T10:13:44.087Z,23000
2022-08-11T10:14:33.946Z,22000
2022-08-11T10:15:08.130Z,21000
2022-08-11T10:16:15.599Z,20000
2022-08-11T10:17:07.631Z,20000
2022-08-11T10:18:07.775Z,20000
2022-08-11T10:19:07.940Z,27000
2022-08-11T10:20:07.794Z,27800
2022-08-11T10:21:07.682Z,20000
2022-08-11T10:22:08.035Z,0
2022-08-11T10:23:07.563Z,0
2022-08-11T10:24:06.522Z,10000
2022-08-11T10:26:07.516Z,15000
2022-08-11T10:27:07.388Z,15000
2022-08-11T10:28:16.984Z,10000
2022-08-11T10:29:13.010Z,10000
2022-08-11T10:30:08.289Z,10000
2022-08-11T10:31:12.671Z,10000
2022-08-11T10:32:07.784Z,11000
2022-08-11T10:33:08.902Z,0
2022-08-11T10:34:07.294Z,0
2022-08-11T10:35:07.619Z,0
2022-08-11T10:36:16.423Z,20000
2022-08-11T10:37:07.389Z,26000
2022-08-11T10:38:09.954Z,20000
2022-08-11T10:39:07.990Z,0
2022-08-11T10:40:08.368Z,0
2022-08-11T10:41:08.076Z,10000
2022-08-11T10:42:12.183Z,13200
2022-08-11T10:43:07.528Z,10000
2022-08-11T10:44:07.395Z,0
2022-08-11T10:45:07.747Z,0
2022-08-11T10:46:07.646Z,0
2022-08-11T10:47:07.519Z,26000
2022-08-11T10:48:07.089Z,0
2022-08-11T10:49:07.633Z,0
2022-08-11T10:50:07.658Z,10000
2022-08-11T10:51:07.643Z,10000
2022-08-11T10:52:08.443Z,16000
2022-08-11T10:53:07.695Z,10000
2022-08-11T10:54:07.762Z,10000
2022-08-11T10:55:07.341Z,10000
2022-08-11T10:56:08.041Z,10000
2022-08-11T10:57:07.824Z,11000
2022-08-11T10:58:07.759Z,12000
2022-08-11T10:59:07.673Z,10000
2022-08-11T11:00:08.277Z,0
2022-08-11T11:01:07.625Z,10000
2022-08-11T11:02:07.585Z,10000
2022-08-11T11:03:23.036Z,0
2022-08-11T11:04:07.491Z,0
2022-08-11T11:05:07.776Z,10000
2022-08-11T11:06:28.665Z,18000
2022-08-11T11:07:07.863Z,10000
2022-08-11T11:08:07.799Z,10000
2022-08-11T11:09:07.836Z,10000
2022-08-11T11:10:07.582Z,14000
2022-08-11T11:11:07.910Z,10000
2022-08-11T11:12:07.484Z,10000
2022-08-11T11:13:07.200Z,17000
2022-08-11T11:14:07.548Z,10000
2022-08-11T11:15:08.371Z,10000
2022-08-11T11:16:07.959Z,10000
2022-08-11T11:17:07.379Z,19000
2022-08-11T11:18:07.228Z,20000
2022-08-11T11:19:07.661Z,21400
2022-08-11T11:20:07.444Z,21200
2022-08-11T11:21:07.574Z,21400
2022-08-11T11:22:07.916Z,20000
2022-08-11T11:23:07.257Z,19000
2022-08-11T11:24:08.099Z,19000
2022-08-11T11:25:08.436Z,10000
2022-08-11T11:26:07.308Z,10000
2022-08-11T11:27:07.325Z,15400
2022-08-11T11:28:07.733Z,10000
2022-08-11T11:29:07.843Z,10000
2022-08-11T11:30:07.787Z,18900
2022-08-11T11:31:07.758Z,19100
2022-08-11T11:32:08.133Z,19000
2022-08-11T11:33:08.049Z,0
2022-08-11T11:34:12.384Z,0
2022-08-11T11:35:07.751Z,29000
2022-08-11T11:36:07.703Z,30000
2022-08-11T11:37:07.479Z,31700
2022-08-11T11:38:09.389Z,31000
2022-08-11T11:39:08.236Z,20000
2022-08-11T11:40:07.288Z,20000
2022-08-11T11:41:07.968Z,20000
2022-08-11T11:42:07.687Z,0
2022-08-11T11:43:07.351Z,20000
2022-08-11T11:44:07.824Z,10000
2022-08-11T11:45:08.012Z,10000
2022-08-11T11:46:07.351Z,10000
2022-08-11T11:47:08.088Z,10000
2022-08-11T11:48:07.916Z,10000
2022-08-11T11:49:14.000Z,10000
2022-08-11T11:50:07.775Z,10000
2022-08-11T11:51:07.385Z,18000
2022-08-11T11:52:07.745Z,0
2022-08-11T11:53:07.499Z,20000
2022-08-11T11:54:07.887Z,26000
2022-08-11T11:55:07.645Z,0
2022-08-11T11:56:07.458Z,30000
2022-08-11T11:57:07.925Z,20000
2022-08-11T11:58:07.659Z,20000
2022-08-11T11:59:07.695Z,0
2022-08-11T12:00:08.579Z,0
2022-08-11T12:01:07.507Z,0
2022-08-11T12:02:11.870Z,12000
2022-08-11T12:03:08.210Z,13000
2022-08-11T12:04:07.744Z,10000
2022-08-11T12:05:07.641Z,10000
2022-08-11T12:06:07.730Z,0
2022-08-11T12:07:07.735Z,10000
2022-08-11T12:08:12.890Z,9500
2022-08-11T12:09:08.189Z,9000
2022-08-11T12:10:08.083Z,0
2022-08-11T12:11:08.042Z,10000
2022-08-11T12:12:07.560Z,10000
2022-08-11T12:13:07.510Z,10000
2022-08-11T12:14:10.351Z,20000
2022-08-11T12:15:07.487Z,21000
2022-08-11T12:16:32.947Z,21000
2022-08-11T12:17:07.576Z,20000
2022-08-11T12:18:07.443Z,20000
2022-08-11T12:19:07.742Z,19000
2022-08-11T12:20:31.916Z,10000
2022-08-11T12:21:07.344Z,10000
2022-08-11T12:22:07.755Z,14000
2022-08-11T12:23:07.489Z,10000
2022-08-11T12:24:08.225Z,10000
2022-08-11T12:25:08.002Z,10000
2022-08-11T12:26:26.363Z,20000
2022-08-11T12:27:16.112Z,21000
2022-08-11T12:28:07.896Z,20000
2022-08-11T12:29:08.041Z,10000
2022-08-11T12:30:08.152Z,10000
2022-08-11T12:31:08.071Z,15000
2022-08-11T12:32:08.187Z,10000
2022-08-11T12:33:08.120Z,13000
2022-08-11T12:34:07.727Z,13000
2022-08-11T12:35:07.630Z,10000
2022-08-11T12:36:07.823Z,10000
2022-08-11T12:37:08.005Z,10000
2022-08-11T12:38:09.459Z,10000
2022-08-11T12:39:23.399Z,10000
2022-08-11T12:40:15.743Z,20000
2022-08-11T12:41:16.175Z,21500
2022-08-11T12:42:07.510Z,21000
2022-08-11T12:43:21.195Z,10000
2022-08-11T12:44:07.223Z,10000
2022-08-11T12:45:22.262Z,10000
2022-08-11T12:46:07.514Z,18000
2022-08-11T12:47:07.374Z,19000
2022-08-11T12:48:57.496Z,19000
2022-08-11T12:49:09.734Z,19000
2022-08-11T12:50:07.863Z,19000
2022-08-11T12:51:07.813Z,10000
2022-08-11T12:52:14.430Z,10000
2022-08-11T12:53:07.958Z,10000
2022-08-11T12:54:08.138Z,10000
2022-08-11T12:55:12.951Z,0
2022-08-11T12:56:08.046Z,15000
2022-08-11T12:57:07.963Z,15000
2022-08-11T12:58:07.649Z,10000
2022-08-11T12:59:07.451Z,10000
2022-08-11T13:00:07.899Z,0
2022-08-11T13:01:12.711Z,23000
2022-08-11T13:02:07.886Z,20000
2022-08-11T13:03:07.994Z,20000
2022-08-11T13:04:07.880Z,20000
2022-08-11T13:05:07.843Z,20000
2022-08-11T13:06:07.507Z,0
2022-08-11T13:07:07.936Z,20000
2022-08-11T13:08:07.797Z,20000
2022-08-11T13:09:07.848Z,28000
2022-08-11T13:10:11.157Z,20000
2022-08-11T13:11:07.736Z,20000
2022-08-11T13:12:07.603Z,20000
2022-08-11T13:13:53.993Z,23000
2022-08-11T13:14:06.585Z,20000
2022-08-11T13:15:07.559Z,20000
2022-08-11T13:16:07.436Z,20000
2022-08-11T13:17:08.031Z,0
2022-08-11T13:18:07.470Z,0
2022-08-11T13:19:08.106Z,20000
2022-08-11T13:20:07.820Z,0
2022-08-11T13:21:07.687Z,0
2022-08-11T13:22:07.472Z,30000
2022-08-11T13:23:07.413Z,30000
2022-08-11T13:24:07.905Z,0
2022-08-11T13:25:07.721Z,0
2022-08-11T13:26:07.639Z,20000
2022-08-11T13:27:07.372Z,0
2022-08-11T13:28:08.146Z,0
2022-08-11T13:29:08.039Z,0
2022-08-11T13:30:07.866Z,30000